sensor_id;sensor_type;location;lat;lon;timestamp;pressure;altitude;pressure_sealevel;temperature;humidity
36386;BME280;24125;47.482;8.770;2023-05-21T00:00:20;95803.50;;;16.50;77.47
36386;BME280;24125;47.482;8.770;2023-05-21T00:02:53;95800.38;;;16.48;77.05
36386;BME280;24125;47.482;8.770;2023-05-21T00:05:26;95803.44;;;16.47;77.20
36386;BME280;24125;47.482;8.770;2023-05-21T00:07:59;95803.81;;;16.45;77.11
36386;BME280;24125;47.482;8.770;2023-05-21T00:10:33;95790.34;;;16.42;77.42
36386;BME280;24125;47.482;8.770;2023-05-21T00:13:06;95787.22;;;16.40;77.10
36386;BME280;24125;47.482;8.770;2023-05-21T00:15:39;95787.19;;;16.36;77.42
36386;BME280;24125;47.482;8.770;2023-05-21T00:18:12;95784.09;;;16.34;77.32
36386;BME280;24125;47.482;8.770;2023-05-21T00:20:44;95782.94;;;16.32;77.48
36386;BME280;24125;47.482;8.770;2023-05-21T00:23:17;95791.38;;;16.30;77.24
36386;BME280;24125;47.482;8.770;2023-05-21T00:25:53;95785.94;;;16.27;77.23
36386;BME280;24125;47.482;8.770;2023-05-21T00:28:26;95777.47;;;16.25;77.42
36386;BME280;24125;47.482;8.770;2023-05-21T00:30:59;95780.53;;;16.23;77.34
36386;BME280;24125;47.482;8.770;2023-05-21T00:33:31;95776.66;;;16.20;77.55
36386;BME280;24125;47.482;8.770;2023-05-21T00:36:05;95769.72;;;16.19;77.75
36386;BME280;24125;47.482;8.770;2023-05-21T00:38:39;95768.94;;;16.19;77.63
36386;BME280;24125;47.482;8.770;2023-05-21T00:41:15;95771.63;;;16.15;77.50
36386;BME280;24125;47.482;8.770;2023-05-21T00:43:48;95764.69;;;16.14;77.67
36386;BME280;24125;47.482;8.770;2023-05-21T00:46:21;95763.91;;;16.14;77.88
36386;BME280;24125;47.482;8.770;2023-05-21T00:48:54;95764.69;;;16.14;77.59
36386;BME280;24125;47.482;8.770;2023-05-21T00:51:28;95761.56;;;16.12;77.96
36386;BME280;24125;47.482;8.770;2023-05-21T00:54:01;95770.03;;;16.11;77.77
36386;BME280;24125;47.482;8.770;2023-05-21T00:56:36;95766.91;;;16.09;77.94
36386;BME280;24125;47.482;8.770;2023-05-21T00:59:09;95771.13;;;16.06;77.85
36386;BME280;24125;47.482;8.770;2023-05-21T01:01:43;95770.72;;;16.04;77.67
36386;BME280;24125;47.482;8.770;2023-05-21T01:04:16;95767.25;;;16.04;77.98
36386;BME280;24125;47.482;8.770;2023-05-21T01:06:50;95766.47;;;16.03;77.71
36386;BME280;24125;47.482;8.770;2023-05-21T01:09:26;95768.00;;;16.01;78.19
36386;BME280;24125;47.482;8.770;2023-05-21T01:12:01;95769.91;;;16.00;77.79
36386;BME280;24125;47.482;8.770;2023-05-21T01:14:34;95766.47;;;16.00;78.23
36386;BME280;24125;47.482;8.770;2023-05-21T01:17:08;95766.47;;;16.00;78.00
36386;BME280;24125;47.482;8.770;2023-05-21T01:19:42;95762.22;;;15.99;78.08
36386;BME280;24125;47.482;8.770;2023-05-21T01:22:15;95767.59;;;15.99;78.49
36386;BME280;24125;47.482;8.770;2023-05-21T01:24:50;95772.22;;;15.98;78.47
36386;BME280;24125;47.482;8.770;2023-05-21T01:27:23;95767.59;;;15.99;78.08
36386;BME280;24125;47.482;8.770;2023-05-21T01:29:56;95764.91;;;15.99;78.32
36386;BME280;24125;47.482;8.770;2023-05-21T01:32:31;95770.69;;;16.01;78.41
36386;BME280;24125;47.482;8.770;2023-05-21T01:35:07;95762.22;;;15.99;78.44
36386;BME280;24125;47.482;8.770;2023-05-21T01:37:43;95770.69;;;16.01;78.72
36386;BME280;24125;47.482;8.770;2023-05-21T01:40:19;95767.22;;;16.00;78.76
36386;BME280;24125;47.482;8.770;2023-05-21T01:42:54;95767.22;;;16.00;78.88
36386;BME280;24125;47.482;8.770;2023-05-21T01:45:27;95766.84;;;16.02;78.59
36386;BME280;24125;47.482;8.770;2023-05-21T01:48:02;95764.16;;;16.02;78.89
36386;BME280;24125;47.482;8.770;2023-05-21T01:50:36;95768.03;;;16.04;78.66
36386;BME280;24125;47.482;8.770;2023-05-21T01:53:10;95756.13;;;16.05;78.62
36386;BME280;24125;47.482;8.770;2023-05-21T01:55:45;95757.69;;;16.06;78.79
36386;BME280;24125;47.482;8.770;2023-05-21T01:58:18;95755.75;;;16.07;78.69
36386;BME280;24125;47.482;8.770;2023-05-21T02:00:51;95751.16;;;16.07;78.67
36386;BME280;24125;47.482;8.770;2023-05-21T02:03:25;95751.94;;;16.08;78.77
36386;BME280;24125;47.482;8.770;2023-05-21T02:05:58;95746.16;;;16.09;78.61
36386;BME280;24125;47.482;8.770;2023-05-21T02:08:31;95747.31;;;16.08;78.86
36386;BME280;24125;47.482;8.770;2023-05-21T02:11:05;95736.16;;;16.10;78.93
36386;BME280;24125;47.482;8.770;2023-05-21T02:13:38;95739.63;;;16.10;78.80
36386;BME280;24125;47.482;8.770;2023-05-21T02:16:13;95743.88;;;16.11;78.72
36386;BME280;24125;47.482;8.770;2023-05-21T02:18:46;95736.94;;;16.10;78.50
36386;BME280;24125;47.482;8.770;2023-05-21T02:21:21;95733.47;;;16.10;78.74
36386;BME280;24125;47.482;8.770;2023-05-21T02:23:54;95739.63;;;16.10;78.69
36386;BME280;24125;47.482;8.770;2023-05-21T02:26:28;95741.53;;;16.10;78.31
36386;BME280;24125;47.482;8.770;2023-05-21T02:29:02;95745.38;;;16.09;78.65
36386;BME280;24125;47.482;8.770;2023-05-21T02:31:34;95732.69;;;16.09;78.63
36386;BME280;24125;47.482;8.770;2023-05-21T02:34:07;95728.06;;;16.06;78.25
36386;BME280;24125;47.482;8.770;2023-05-21T02:36:40;95726.13;;;16.07;78.54
36386;BME280;24125;47.482;8.770;2023-05-21T02:39:14;95725.38;;;16.06;78.60
36386;BME280;24125;47.482;8.770;2023-05-21T02:41:49;95724.97;;;16.04;78.63
36386;BME280;24125;47.482;8.770;2023-05-21T02:44:21;95722.63;;;16.03;78.51
36386;BME280;24125;47.482;8.770;2023-05-21T02:46:54;95727.25;;;16.02;78.41
36386;BME280;24125;47.482;8.770;2023-05-21T02:49:27;95728.38;;;16.01;78.38
36386;BME280;24125;47.482;8.770;2023-05-21T02:52:00;95730.69;;;15.99;78.46
36386;BME280;24125;47.482;8.770;2023-05-21T02:54:33;95732.97;;;15.97;78.26
36386;BME280;24125;47.482;8.770;2023-05-21T02:57:07;95734.13;;;15.96;78.10
36386;BME280;24125;47.482;8.770;2023-05-21T02:59:40;95732.56;;;15.95;78.10
36386;BME280;24125;47.482;8.770;2023-05-21T03:02:13;95738.66;;;15.92;78.05
36386;BME280;24125;47.482;8.770;2023-05-21T03:04:46;95730.56;;;15.89;77.85
36386;BME280;24125;47.482;8.770;2023-05-21T03:07:19;95745.53;;;15.86;77.77
36386;BME280;24125;47.482;8.770;2023-05-21T03:09:52;95727.44;;;15.83;77.63
36386;BME280;24125;47.482;8.770;2023-05-21T03:12:26;95730.88;;;15.80;77.41
36386;BME280;24125;47.482;8.770;2023-05-21T03:14:59;95731.59;;;15.77;77.79
36386;BME280;24125;47.482;8.770;2023-05-21T03:17:31;95735.06;;;15.74;77.58
36386;BME280;24125;47.482;8.770;2023-05-21T03:20:05;95723.47;;;15.70;77.36
36386;BME280;24125;47.482;8.770;2023-05-21T03:22:39;95728.44;;;15.68;77.33
36386;BME280;24125;47.482;8.770;2023-05-21T03:25:11;95723.81;;;15.65;77.31
36386;BME280;24125;47.482;8.770;2023-05-21T03:27:46;95719.50;;;15.60;77.56
36386;BME280;24125;47.482;8.770;2023-05-21T03:30:19;95723.69;;;15.58;77.50
36386;BME280;24125;47.482;8.770;2023-05-21T03:32:51;95727.16;;;15.55;77.28
36386;BME280;24125;47.482;8.770;2023-05-21T03:35:24;95731.66;;;15.51;77.50
36386;BME280;24125;47.482;8.770;2023-05-21T03:37:57;95732.41;;;15.47;77.40
36386;BME280;24125;47.482;8.770;2023-05-21T03:40:30;95738.53;;;15.44;77.39
36386;BME280;24125;47.482;8.770;2023-05-21T03:43:04;95735.41;;;15.42;77.48
36386;BME280;24125;47.482;8.770;2023-05-21T03:45:37;95742.28;;;15.40;77.41
36386;BME280;24125;47.482;8.770;2023-05-21T03:48:13;95738.03;;;15.35;77.58
36386;BME280;24125;47.482;8.770;2023-05-21T03:50:46;95733.78;;;15.34;77.71
36386;BME280;24125;47.482;8.770;2023-05-21T03:53:19;95743.75;;;15.34;77.97
36386;BME280;24125;47.482;8.770;2023-05-21T03:55:52;95742.97;;;15.30;77.73
36386;BME280;24125;47.482;8.770;2023-05-21T03:58:27;95744.88;;;15.29;78.17
36386;BME280;24125;47.482;8.770;2023-05-21T04:01:00;95744.88;;;15.29;78.05
36386;BME280;24125;47.482;8.770;2023-05-21T04:03:35;95748.34;;;15.30;78.40
36386;BME280;24125;47.482;8.770;2023-05-21T04:06:11;95757.94;;;15.31;78.29
36386;BME280;24125;47.482;8.770;2023-05-21T04:08:43;95752.56;;;15.31;78.62
36386;BME280;24125;47.482;8.770;2023-05-21T04:11:17;95754.88;;;15.32;78.60
36386;BME280;24125;47.482;8.770;2023-05-21T04:13:51;95761.03;;;15.33;78.53
36386;BME280;24125;47.482;8.770;2023-05-21T04:16:24;95758.00;;;15.34;78.72
36386;BME280;24125;47.482;8.770;2023-05-21T04:18:56;95761.09;;;15.36;78.69
36386;BME280;24125;47.482;8.770;2023-05-21T04:21:29;95762.66;;;15.37;78.84
36386;BME280;24125;47.482;8.770;2023-05-21T04:24:03;95761.91;;;15.40;79.18
36386;BME280;24125;47.482;8.770;2023-05-21T04:26:35;95774.63;;;15.43;78.79
36386;BME280;24125;47.482;8.770;2023-05-21T04:29:09;95766.63;;;15.47;78.99
36386;BME280;24125;47.482;8.770;2023-05-21T04:31:42;95770.47;;;15.49;79.35
36386;BME280;24125;47.482;8.770;2023-05-21T04:34:15;95769.31;;;15.51;79.15
36386;BME280;24125;47.482;8.770;2023-05-21T04:36:49;95777.13;;;15.56;79.56
36386;BME280;24125;47.482;8.770;2023-05-21T04:39:22;95779.06;;;15.59;79.24
36386;BME280;24125;47.482;8.770;2023-05-21T04:41:55;95780.25;;;15.61;79.48
36386;BME280;24125;47.482;8.770;2023-05-21T04:44:29;95773.75;;;15.66;79.60
36386;BME280;24125;47.482;8.770;2023-05-21T04:47:02;95767.66;;;15.69;79.45
36386;BME280;24125;47.482;8.770;2023-05-21T04:49:35;95778.09;;;15.74;79.63
36386;BME280;24125;47.482;8.770;2023-05-21T04:52:08;95783.94;;;15.79;79.79
36386;BME280;24125;47.482;8.770;2023-05-21T04:54:41;95778.97;;;15.85;79.37
36386;BME280;24125;47.482;8.770;2023-05-21T04:57:16;95783.28;;;15.90;79.83
36386;BME280;24125;47.482;8.770;2023-05-21T04:59:51;95784.84;;;15.94;80.06
36386;BME280;24125;47.482;8.770;2023-05-21T05:02:23;95790.31;;;16.01;80.48
36386;BME280;24125;47.482;8.770;2023-05-21T05:04:56;95790.75;;;16.07;80.22
36386;BME280;24125;47.482;8.770;2023-05-21T05:07:30;95783.13;;;16.12;80.51
36386;BME280;24125;47.482;8.770;2023-05-21T05:10:03;95785.88;;;16.19;80.25
36386;BME280;24125;47.482;8.770;2023-05-21T05:12:36;95787.09;;;16.26;80.67
36386;BME280;24125;47.482;8.770;2023-05-21T05:15:10;95783.69;;;16.32;80.34
36386;BME280;24125;47.482;8.770;2023-05-21T05:17:43;95786.81;;;16.38;80.70
36386;BME280;24125;47.482;8.770;2023-05-21T05:20:18;95795.38;;;16.47;80.54
36386;BME280;24125;47.482;8.770;2023-05-21T05:22:51;95793.88;;;16.53;80.58
36386;BME280;24125;47.482;8.770;2023-05-21T05:25:25;95790.47;;;16.59;80.76
36386;BME280;24125;47.482;8.770;2023-05-21T05:27:58;95788.66;;;16.67;80.79
36386;BME280;24125;47.482;8.770;2023-05-21T05:30:32;95792.94;;;16.75;80.78
36386;BME280;24125;47.482;8.770;2023-05-21T05:33:05;95790.69;;;16.84;81.44
36386;BME280;24125;47.482;8.770;2023-05-21T05:35:38;95793.06;;;16.93;81.49
36386;BME280;24125;47.482;8.770;2023-05-21T05:38:11;95784.28;;;17.03;81.44
36386;BME280;24125;47.482;8.770;2023-05-21T05:40:44;95794.34;;;17.13;81.97
36386;BME280;24125;47.482;8.770;2023-05-21T05:43:17;95792.91;;;17.26;81.87
36386;BME280;24125;47.482;8.770;2023-05-21T05:45:51;95792.56;;;17.39;82.56
36386;BME280;24125;47.482;8.770;2023-05-21T05:48:24;95796.13;;;17.53;82.69
36386;BME280;24125;47.482;8.770;2023-05-21T05:50:57;95795.44;;;17.70;82.89
36386;BME280;24125;47.482;8.770;2023-05-21T05:53:30;95795.13;;;17.86;83.38
36386;BME280;24125;47.482;8.770;2023-05-21T05:56:03;95801.34;;;18.04;83.34
36386;BME280;24125;47.482;8.770;2023-05-21T05:58:36;95802.94;;;18.23;83.52
36386;BME280;24125;47.482;8.770;2023-05-21T06:01:10;95811.84;;;18.41;83.78
36386;BME280;24125;47.482;8.770;2023-05-21T06:03:43;95808.44;;;18.59;83.90
36386;BME280;24125;47.482;8.770;2023-05-21T06:06:17;95800.69;;;18.78;84.00
36386;BME280;24125;47.482;8.770;2023-05-21T06:08:50;95810.75;;;18.99;84.27
36386;BME280;24125;47.482;8.770;2023-05-21T06:11:22;95811.88;;;19.19;84.13
36386;BME280;24125;47.482;8.770;2023-05-21T06:13:56;95815.69;;;19.40;84.01
36386;BME280;24125;47.482;8.770;2023-05-21T06:16:32;95811.41;;;19.60;83.96
36386;BME280;24125;47.482;8.770;2023-05-21T06:19:05;95811.72;;;19.83;84.06
36386;BME280;24125;47.482;8.770;2023-05-21T06:21:38;95808.53;;;20.03;83.97
36386;BME280;24125;47.482;8.770;2023-05-21T06:24:11;95805.34;;;20.22;83.71
36386;BME280;24125;47.482;8.770;2023-05-21T06:26:43;95800.19;;;20.42;83.75
36386;BME280;24125;47.482;8.770;2023-05-21T06:29:16;95800.44;;;20.61;83.68
36386;BME280;24125;47.482;8.770;2023-05-21T06:31:50;95801.50;;;20.78;83.55
36386;BME280;24125;47.482;8.770;2023-05-21T06:34:23;95800.94;;;20.97;83.06
36386;BME280;24125;47.482;8.770;2023-05-21T06:36:56;95798.88;;;21.12;82.81
36386;BME280;24125;47.482;8.770;2023-05-21T06:39:29;95799.56;;;21.27;82.72
36386;BME280;24125;47.482;8.770;2023-05-21T06:42:02;95804.81;;;21.41;82.20
36386;BME280;24125;47.482;8.770;2023-05-21T06:44:35;95807.03;;;21.53;82.38
36386;BME280;24125;47.482;8.770;2023-05-21T06:47:09;95803.38;;;21.67;82.04
36386;BME280;24125;47.482;8.770;2023-05-21T06:49:42;95800.88;;;21.79;81.57
36386;BME280;24125;47.482;8.770;2023-05-21T06:52:14;95796.94;;;21.88;79.92
36386;BME280;24125;47.482;8.770;2023-05-21T06:54:47;95803.03;;;21.95;79.05
36386;BME280;24125;47.482;8.770;2023-05-21T06:57:20;95801.03;;;22.03;78.72
36386;BME280;24125;47.482;8.770;2023-05-21T06:59:53;95802.50;;;22.07;78.68
36386;BME280;24125;47.482;8.770;2023-05-21T07:02:27;95799.75;;;22.11;78.73
36386;BME280;24125;47.482;8.770;2023-05-21T07:05:00;95807.44;;;22.16;79.29
36386;BME280;24125;47.482;8.770;2023-05-21T07:07:33;95816.34;;;22.20;79.88
36386;BME280;24125;47.482;8.770;2023-05-21T07:10:07;95813.53;;;22.27;78.94
36386;BME280;24125;47.482;8.770;2023-05-21T07:12:40;95814.25;;;22.31;77.61
36386;BME280;24125;47.482;8.770;2023-05-21T07:15:13;95807.56;;;22.36;77.75
36386;BME280;24125;47.482;8.770;2023-05-21T07:17:47;95813.31;;;22.41;77.55
36386;BME280;24125;47.482;8.770;2023-05-21T07:20:20;95815.19;;;22.48;78.24
36386;BME280;24125;47.482;8.770;2023-05-21T07:22:53;95815.44;;;22.57;77.31
36386;BME280;24125;47.482;8.770;2023-05-21T07:25:26;95812.59;;;22.64;78.22
36386;BME280;24125;47.482;8.770;2023-05-21T07:27:58;95808.19;;;22.74;77.27
36386;BME280;24125;47.482;8.770;2023-05-21T07:30:31;95801.88;;;22.80;78.44
36386;BME280;24125;47.482;8.770;2023-05-21T07:33:05;95802.13;;;22.89;78.97
36386;BME280;24125;47.482;8.770;2023-05-21T07:35:38;95800.81;;;22.98;76.64
36386;BME280;24125;47.482;8.770;2023-05-21T07:38:11;95800.69;;;23.05;78.18
36386;BME280;24125;47.482;8.770;2023-05-21T07:40:44;95793.59;;;23.11;78.50
36386;BME280;24125;47.482;8.770;2023-05-21T07:43:17;95789.22;;;23.17;78.50
36386;BME280;24125;47.482;8.770;2023-05-21T07:45:49;95792.22;;;23.22;75.99
36386;BME280;24125;47.482;8.770;2023-05-21T07:48:24;95791.72;;;23.27;77.79
36386;BME280;24125;47.482;8.770;2023-05-21T07:50:57;95785.06;;;23.32;77.73
36386;BME280;24125;47.482;8.770;2023-05-21T07:53:30;95785.75;;;23.36;76.53
36386;BME280;24125;47.482;8.770;2023-05-21T07:56:04;95783.72;;;23.40;77.38
36386;BME280;24125;47.482;8.770;2023-05-21T07:58:36;95792.59;;;23.44;77.52
36386;BME280;24125;47.482;8.770;2023-05-21T08:01:09;95792.16;;;23.49;77.45
36386;BME280;24125;47.482;8.770;2023-05-21T08:03:43;95794.06;;;23.52;73.77
36386;BME280;24125;47.482;8.770;2023-05-21T08:06:16;95787.75;;;23.55;75.18
36386;BME280;24125;47.482;8.770;2023-05-21T08:08:49;95790.41;;;23.59;75.11
36386;BME280;24125;47.482;8.770;2023-05-21T08:11:22;95790.00;;;23.60;74.82
36386;BME280;24125;47.482;8.770;2023-05-21T08:13:55;95784.88;;;23.62;75.50
36386;BME280;24125;47.482;8.770;2023-05-21T08:16:28;95792.22;;;23.65;75.95
36386;BME280;24125;47.482;8.770;2023-05-21T08:19:02;95795.66;;;23.69;75.31
36386;BME280;24125;47.482;8.770;2023-05-21T08:21:35;95791.66;;;23.74;76.64
36386;BME280;24125;47.482;8.770;2023-05-21T08:24:08;95800.13;;;23.80;74.20
36386;BME280;24125;47.482;8.770;2023-05-21T08:26:40;95797.28;;;23.87;76.20
36386;BME280;24125;47.482;8.770;2023-05-21T08:29:14;95799.84;;;23.94;73.54
36386;BME280;24125;47.482;8.770;2023-05-21T08:31:47;95799.28;;;24.02;74.59
36386;BME280;24125;47.482;8.770;2023-05-21T08:34:21;95796.03;;;24.07;75.07
36386;BME280;24125;47.482;8.770;2023-05-21T08:36:54;95797.44;;;24.16;70.86
36386;BME280;24125;47.482;8.770;2023-05-21T08:39:27;95788.34;;;24.22;73.07
36386;BME280;24125;47.482;8.770;2023-05-21T08:42:01;95789.72;;;24.30;72.99
36386;BME280;24125;47.482;8.770;2023-05-21T08:44:35;95787.28;;;24.36;73.25
36386;BME280;24125;47.482;8.770;2023-05-21T08:47:09;95784.41;;;24.43;73.60
36386;BME280;24125;47.482;8.770;2023-05-21T08:49:46;95790.44;;;24.51;76.81
36386;BME280;24125;47.482;8.770;2023-05-21T08:52:19;95775.88;;;24.57;75.70
36386;BME280;24125;47.482;8.770;2023-05-21T08:54:52;95780.41;;;24.64;76.13
36386;BME280;24125;47.482;8.770;2023-05-21T08:57:26;95781.44;;;24.70;77.29
36386;BME280;24125;47.482;8.770;2023-05-21T08:59:59;95775.03;;;24.76;76.30
36386;BME280;24125;47.482;8.770;2023-05-21T09:02:33;95775.63;;;24.84;79.65
36386;BME280;24125;47.482;8.770;2023-05-21T09:05:10;95777.84;;;24.89;78.71
36386;BME280;24125;47.482;8.770;2023-05-21T09:07:46;95782.41;;;24.96;77.93
36386;BME280;24125;47.482;8.770;2023-05-21T09:10:22;95778.28;;;25.04;77.78
36386;BME280;24125;47.482;8.770;2023-05-21T09:12:58;95784.34;;;25.11;77.81
36386;BME280;24125;47.482;8.770;2023-05-21T09:15:31;95782.19;;;25.19;75.30
36386;BME280;24125;47.482;8.770;2023-05-21T09:18:04;95782.34;;;25.28;76.92
36386;BME280;24125;47.482;8.770;2023-05-21T09:20:38;95783.69;;;25.36;76.30
36386;BME280;24125;47.482;8.770;2023-05-21T09:23:11;95779.25;;;25.42;76.97
36386;BME280;24125;47.482;8.770;2023-05-21T09:25:48;95785.72;;;25.48;76.32
36386;BME280;24125;47.482;8.770;2023-05-21T09:28:22;95776.97;;;25.53;73.65
36386;BME280;24125;47.482;8.770;2023-05-21T09:30:57;95772.97;;;25.58;73.09
36386;BME280;24125;47.482;8.770;2023-05-21T09:33:34;95790.81;;;25.63;72.85
36386;BME280;24125;47.482;8.770;2023-05-21T09:36:08;95788.78;;;25.67;73.37
36386;BME280;24125;47.482;8.770;2023-05-21T09:38:42;95797.97;;;25.73;76.07
36386;BME280;24125;47.482;8.770;2023-05-21T09:41:16;95790.88;;;25.75;74.93
36386;BME280;24125;47.482;8.770;2023-05-21T09:43:52;95788.44;;;25.77;76.38
36386;BME280;24125;47.482;8.770;2023-05-21T09:46:36;95787.94;;;25.82;75.56
36386;BME280;24125;47.482;8.770;2023-05-21T09:49:21;95794.81;;;25.87;75.63
36386;BME280;24125;47.482;8.770;2023-05-21T09:51:55;95794.31;;;25.92;73.58
36386;BME280;24125;47.482;8.770;2023-05-21T09:54:29;95789.50;;;25.96;74.88
36386;BME280;24125;47.482;8.770;2023-05-21T09:57:03;95792.13;;;26.00;76.26
36386;BME280;24125;47.482;8.770;2023-05-21T09:59:36;95785.03;;;26.02;71.84
36386;BME280;24125;47.482;8.770;2023-05-21T10:02:16;95786.88;;;26.05;69.53
36386;BME280;24125;47.482;8.770;2023-05-21T10:04:50;95787.56;;;26.09;72.57
36386;BME280;24125;47.482;8.770;2023-05-21T10:07:26;95782.84;;;26.10;72.90
36386;BME280;24125;47.482;8.770;2023-05-21T10:10:02;95787.44;;;26.13;72.05
36386;BME280;24125;47.482;8.770;2023-05-21T10:12:35;95790.84;;;26.17;73.28
36386;BME280;24125;47.482;8.770;2023-05-21T10:15:10;95791.50;;;26.21;72.94
36386;BME280;24125;47.482;8.770;2023-05-21T10:17:45;95786.69;;;26.25;75.86
36386;BME280;24125;47.482;8.770;2023-05-21T10:20:18;95780.41;;;26.28;73.36
36386;BME280;24125;47.482;8.770;2023-05-21T10:22:53;95779.84;;;26.33;71.20
36386;BME280;24125;47.482;8.770;2023-05-21T10:25:26;95785.09;;;26.40;71.66
36386;BME280;24125;47.482;8.770;2023-05-21T10:27:59;95784.88;;;26.47;74.29
36386;BME280;24125;47.482;8.770;2023-05-21T10:30:32;95781.94;;;26.54;78.61
36386;BME280;24125;47.482;8.770;2023-05-21T10:33:06;95775.03;;;26.62;73.11
36386;BME280;24125;47.482;8.770;2023-05-21T10:35:39;95774.78;;;26.70;68.80
36386;BME280;24125;47.482;8.770;2023-05-21T10:38:13;95760.44;;;26.78;70.16
36386;BME280;24125;47.482;8.770;2023-05-21T10:40:50;95760.97;;;26.86;66.70
36386;BME280;24125;47.482;8.770;2023-05-21T10:43:30;95768.97;;;26.93;66.90
36386;BME280;24125;47.482;8.770;2023-05-21T10:46:14;95759.31;;;27.01;71.35
36386;BME280;24125;47.482;8.770;2023-05-21T10:48:57;95769.16;;;27.11;75.69
36386;BME280;24125;47.482;8.770;2023-05-21T10:51:37;95758.72;;;27.19;74.32
36386;BME280;24125;47.482;8.770;2023-05-21T10:57:03;95771.03;;;27.36;68.62
36386;BME280;24125;47.482;8.770;2023-05-21T10:59:41;95768.53;;;27.41;65.68
36386;BME280;24125;47.482;8.770;2023-05-21T11:02:14;95764.75;;;27.48;68.92
36386;BME280;24125;47.482;8.770;2023-05-21T11:04:48;95767.59;;;27.57;74.20
36386;BME280;24125;47.482;8.770;2023-05-21T11:07:49;95770.97;;;27.61;69.74
36386;BME280;24125;47.482;8.770;2023-05-21T11:10:34;95767.19;;;27.68;74.02
36386;BME280;24125;47.482;8.770;2023-05-21T11:13:13;95758.09;;;27.71;76.66
36386;BME280;24125;47.482;8.770;2023-05-21T11:16:05;95765.69;;;27.67;64.95
36386;BME280;24125;47.482;8.770;2023-05-21T11:18:59;95764.78;;;27.70;74.43
36386;BME280;24125;47.482;8.770;2023-05-21T11:21:33;95758.69;;;27.66;70.37
36386;BME280;24125;47.482;8.770;2023-05-21T11:24:06;95761.84;;;27.64;70.95
36386;BME280;24125;47.482;8.770;2023-05-21T11:27:00;95758.03;;;27.62;65.56
36386;BME280;24125;47.482;8.770;2023-05-21T11:29:44;95759.22;;;27.61;69.78
36386;BME280;24125;47.482;8.770;2023-05-21T11:32:17;95761.97;;;27.61;71.76
36386;BME280;24125;47.482;8.770;2023-05-21T11:34:50;95758.47;;;27.60;76.97
36386;BME280;24125;47.482;8.770;2023-05-21T11:37:25;95761.22;;;27.60;74.66
36386;BME280;24125;47.482;8.770;2023-05-21T11:40:15;95761.22;;;27.60;72.98
36386;BME280;24125;47.482;8.770;2023-05-21T11:42:48;95762.75;;;27.61;71.85
36386;BME280;24125;47.482;8.770;2023-05-21T11:45:26;95770.09;;;27.64;73.65
36386;BME280;24125;47.482;8.770;2023-05-21T11:47:59;95763.38;;;27.65;73.68
36386;BME280;24125;47.482;8.770;2023-05-21T11:50:32;95766.00;;;27.69;75.61
36386;BME280;24125;47.482;8.770;2023-05-21T11:53:05;95759.63;;;27.72;67.97
36386;BME280;24125;47.482;8.770;2023-05-21T11:55:39;95763.75;;;27.76;77.37
36386;BME280;24125;47.482;8.770;2023-05-21T11:58:14;95758.16;;;27.80;76.81
36386;BME280;24125;47.482;8.770;2023-05-21T12:00:51;95762.31;;;27.85;77.98
36386;BME280;24125;47.482;8.770;2023-05-21T12:03:24;95749.66;;;27.87;72.70
36386;BME280;24125;47.482;8.770;2023-05-21T12:06:03;95764.63;;;27.95;76.26
36386;BME280;24125;47.482;8.770;2023-05-21T12:08:36;95761.63;;;28.02;78.11
36386;BME280;24125;47.482;8.770;2023-05-21T12:11:09;95762.59;;;28.08;74.41
36386;BME280;24125;47.482;8.770;2023-05-21T12:13:42;95758.38;;;28.17;72.13
36386;BME280;24125;47.482;8.770;2023-05-21T12:16:17;95762.38;;;28.25;77.52
36386;BME280;24125;47.482;8.770;2023-05-21T12:18:49;95764.84;;;28.32;75.43
36386;BME280;24125;47.482;8.770;2023-05-21T12:21:24;95757.25;;;28.36;74.33
36386;BME280;24125;47.482;8.770;2023-05-21T12:23:58;95766.88;;;28.40;70.63
36386;BME280;24125;47.482;8.770;2023-05-21T12:26:31;95763.25;;;28.43;75.36
36386;BME280;24125;47.482;8.770;2023-05-21T12:29:05;95761.88;;;28.48;75.65
36386;BME280;24125;47.482;8.770;2023-05-21T12:31:47;95755.03;;;28.52;74.91
36386;BME280;24125;47.482;8.770;2023-05-21T12:34:36;95759.16;;;28.57;75.80
36386;BME280;24125;47.482;8.770;2023-05-21T12:37:09;95760.56;;;28.62;71.45
36386;BME280;24125;47.482;8.770;2023-05-21T12:39:43;95757.66;;;28.65;67.24
36386;BME280;24125;47.482;8.770;2023-05-21T12:42:22;95757.84;;;28.71;74.24
36386;BME280;24125;47.482;8.770;2023-05-21T12:44:56;95764.72;;;28.75;78.00
36386;BME280;24125;47.482;8.770;2023-05-21T12:47:31;95760.78;;;28.76;73.86
36386;BME280;24125;47.482;8.770;2023-05-21T12:50:07;95749.78;;;28.76;73.92
36386;BME280;24125;47.482;8.770;2023-05-21T12:52:42;95747.81;;;28.77;72.18
36386;BME280;24125;47.482;8.770;2023-05-21T12:55:15;95753.72;;;28.75;66.54
36386;BME280;24125;47.482;8.770;2023-05-21T12:57:48;95755.28;;;28.76;71.32
36386;BME280;24125;47.482;8.770;2023-05-21T13:00:22;95761.97;;;28.75;72.22
36386;BME280;24125;47.482;8.770;2023-05-21T13:02:56;95758.44;;;28.75;69.37
36386;BME280;24125;47.482;8.770;2023-05-21T13:05:31;95755.69;;;28.75;71.50
36386;BME280;24125;47.482;8.770;2023-05-21T13:08:04;95753.72;;;28.75;72.86
36386;BME280;24125;47.482;8.770;2023-05-21T13:10:37;95769.03;;;28.76;72.48
36386;BME280;24125;47.482;8.770;2023-05-21T13:13:10;95757.59;;;28.78;74.14
36386;BME280;24125;47.482;8.770;2023-05-21T13:15:43;95762.16;;;28.81;73.40
36386;BME280;24125;47.482;8.770;2023-05-21T13:18:17;95758.06;;;28.85;74.43
36386;BME280;24125;47.482;8.770;2023-05-21T13:20:51;95757.44;;;28.90;76.01
36386;BME280;24125;47.482;8.770;2023-05-21T13:23:24;95750.16;;;28.97;76.13
36386;BME280;24125;47.482;8.770;2023-05-21T13:25:56;95747.56;;;29.02;76.86
36386;BME280;24125;47.482;8.770;2023-05-21T13:28:30;95748.47;;;29.08;78.03
36386;BME280;24125;47.482;8.770;2023-05-21T13:31:02;95745.13;;;29.13;76.47
36386;BME280;24125;47.482;8.770;2023-05-21T13:33:37;95752.00;;;29.18;74.05
36386;BME280;24125;47.482;8.770;2023-05-21T13:36:10;95749.09;;;29.21;75.69
36386;BME280;24125;47.482;8.770;2023-05-21T13:38:43;95741.00;;;29.27;75.97